createdAt,value
2018-07-01T00:01:42.988Z,16.77
2018-07-01T00:04:11.808Z,16.73
2018-07-01T00:06:40.587Z,16.63
2018-07-01T00:09:09.626Z,16.36
2018-07-01T00:11:38.407Z,16.34
2018-07-01T00:14:07.251Z,16.35
2018-07-01T00:16:36.025Z,16.29
2018-07-01T00:19:05.276Z,16.35
2018-07-01T00:21:34.161Z,16.42
2018-07-01T00:24:02.987Z,16.21
2018-07-01T00:26:31.800Z,16.09
2018-07-01T00:29:00.575Z,16.10
2018-07-01T00:31:29.218Z,16.00
2018-07-01T00:33:58.188Z,16.02
2018-07-01T00:36:27.029Z,16.01
2018-07-01T00:38:55.770Z,16.01
2018-07-01T00:41:24.588Z,15.83
2018-07-01T00:43:53.335Z,15.87
2018-07-01T00:46:22.203Z,15.90
2018-07-01T00:48:50.957Z,15.86
2018-07-01T00:51:19.645Z,15.85
2018-07-01T00:53:48.414Z,16.00
2018-07-01T00:56:17.288Z,15.98
2018-07-01T00:58:45.943Z,15.90
2018-07-01T01:01:14.623Z,15.87
2018-07-01T01:03:43.409Z,15.79
2018-07-01T01:06:12.203Z,15.87
2018-07-01T01:08:41.327Z,15.63
2018-07-01T01:11:10.114Z,15.43
2018-07-01T01:13:38.910Z,15.64
2018-07-01T01:16:07.883Z,15.36
2018-07-01T01:18:36.495Z,15.62
2018-07-01T01:21:05.870Z,15.64
2018-07-01T01:23:34.796Z,15.56
2018-07-01T01:26:03.599Z,15.37
2018-07-01T01:28:32.462Z,15.42
2018-07-01T01:31:01.251Z,15.43
2018-07-01T01:33:30.142Z,15.44
2018-07-01T01:35:59.141Z,15.38
2018-07-01T01:38:30.146Z,15.39
2018-07-01T01:41:03.513Z,15.40
2018-07-01T01:44:39.656Z,15.27
2018-07-01T01:47:17.019Z,15.35
2018-07-01T01:49:54.560Z,15.29
2018-07-01T01:52:27.899Z,15.10
2018-07-01T01:55:01.872Z,15.27
2018-07-01T01:57:51.827Z,15.08
2018-07-01T02:00:27.312Z,14.96
2018-07-01T02:05:08.652Z,14.70
2018-07-01T02:07:44.452Z,14.64
2018-07-01T02:10:13.324Z,14.90
2018-07-01T02:12:42.187Z,14.72
2018-07-01T02:15:14.907Z,14.80
2018-07-01T02:17:46.067Z,14.71
2018-07-01T02:20:16.235Z,14.71
2018-07-01T02:22:54.167Z,14.75
2018-07-01T02:25:25.791Z,14.66
2018-07-01T02:27:54.687Z,14.60
2018-07-01T02:30:23.580Z,14.37
2018-07-01T02:32:52.170Z,14.24
2018-07-01T02:35:20.837Z,14.73
2018-07-01T02:37:49.573Z,14.50
2018-07-01T02:40:18.522Z,14.40
2018-07-01T02:42:47.302Z,14.69
2018-07-01T02:45:16.147Z,14.56
2018-07-01T02:47:44.950Z,14.59
2018-07-01T02:50:13.782Z,14.61
2018-07-01T02:52:42.631Z,14.71
2018-07-01T02:55:11.508Z,14.43
2018-07-01T02:57:40.315Z,14.57
2018-07-01T03:00:09.116Z,14.39
2018-07-01T03:02:37.976Z,14.42
2018-07-01T03:05:06.891Z,14.44
2018-07-01T03:07:35.708Z,14.49
2018-07-01T03:10:04.565Z,14.54
2018-07-01T03:12:33.374Z,14.54
2018-07-01T03:15:02.142Z,14.26
2018-07-01T03:17:31.417Z,14.19
2018-07-01T03:20:00.228Z,14.15
2018-07-01T03:22:29.106Z,14.13
2018-07-01T03:24:57.996Z,14.29
2018-07-01T03:27:26.850Z,14.39
2018-07-01T03:29:55.674Z,14.36
2018-07-01T03:32:24.504Z,14.00
2018-07-01T03:34:53.336Z,14.24
2018-07-01T03:37:22.172Z,14.28
2018-07-01T03:39:50.912Z,14.14
2018-07-01T03:42:19.732Z,14.13
2018-07-01T03:44:48.523Z,14.10
2018-07-01T03:47:17.271Z,14.39
2018-07-01T03:49:46.065Z,15.22
2018-07-01T03:52:14.848Z,15.78
2018-07-01T03:54:43.764Z,16.37
2018-07-01T03:57:12.354Z,16.64
2018-07-01T03:59:40.984Z,16.87
2018-07-01T04:02:09.778Z,16.99
2018-07-01T04:04:38.598Z,16.89
2018-07-01T04:07:07.445Z,16.34
2018-07-01T04:09:36.239Z,15.69
2018-07-01T04:12:05.019Z,15.28
2018-07-01T04:14:33.848Z,15.19
2018-07-01T04:17:02.612Z,15.25
2018-07-01T04:19:39.092Z,15.70
2018-07-01T04:22:08.816Z,16.16
2018-07-01T04:24:38.010Z,16.52
2018-07-01T04:27:06.863Z,16.94
2018-07-01T04:29:36.156Z,17.34
2018-07-01T04:32:05.151Z,17.64
2018-07-01T04:34:33.891Z,17.74
2018-07-01T04:37:02.726Z,17.53
2018-07-01T04:39:31.537Z,17.58
2018-07-01T04:42:00.220Z,18.00
2018-07-01T04:44:28.997Z,18.20
2018-07-01T04:46:57.804Z,18.30
2018-07-01T04:49:26.566Z,18.18
2018-07-01T04:51:55.449Z,17.70
2018-07-01T04:54:24.665Z,17.78
2018-07-01T04:56:53.459Z,18.09
2018-07-01T04:59:22.223Z,18.10
2018-07-01T05:01:50.924Z,17.43
2018-07-01T05:04:19.681Z,18.38
2018-07-01T05:06:48.558Z,18.01
2018-07-01T05:09:17.331Z,18.24
2018-07-01T05:11:46.136Z,18.66
2018-07-01T05:14:15.025Z,18.45
2018-07-01T05:16:43.863Z,17.96
2018-07-01T05:19:12.735Z,17.87
2018-07-01T05:21:41.583Z,18.03
2018-07-01T05:24:10.349Z,18.58
2018-07-01T05:26:39.172Z,19.24
2018-07-01T05:29:08.151Z,18.95
2018-07-01T05:31:37.235Z,18.57
2018-07-01T05:34:07.883Z,18.53
2018-07-01T05:36:36.699Z,18.82
2018-07-01T05:39:09.780Z,17.31
2018-07-01T05:41:38.426Z,18.35
2018-07-01T05:44:07.371Z,17.61
2018-07-01T05:46:36.424Z,18.74
2018-07-01T05:49:05.296Z,18.92
2018-07-01T05:51:33.905Z,19.11
2018-07-01T05:54:02.791Z,18.99
2018-07-01T05:56:31.584Z,19.24
2018-07-01T05:59:00.435Z,18.46
2018-07-01T06:01:29.323Z,19.48
2018-07-01T06:03:58.144Z,18.63
2018-07-01T06:06:26.957Z,18.29
2018-07-01T06:08:56.185Z,18.74
2018-07-01T06:11:24.979Z,18.63
2018-07-01T06:13:54.115Z,19.45
2018-07-01T06:16:22.913Z,19.01
2018-07-01T06:18:51.743Z,19.58
2018-07-01T06:21:20.516Z,19.33
2018-07-01T06:23:49.293Z,19.29
2018-07-01T06:26:18.138Z,19.14
2018-07-01T06:28:46.897Z,19.29
2018-07-01T06:31:15.756Z,19.22
2018-07-01T06:33:44.511Z,19.61
2018-07-01T06:36:13.356Z,20.25
2018-07-01T06:38:42.146Z,19.91
2018-07-01T06:41:11.006Z,19.55
2018-07-01T06:43:39.840Z,19.37
2018-07-01T06:46:08.688Z,19.55
2018-07-01T06:48:37.476Z,19.19
2018-07-01T06:51:06.631Z,19.83
2018-07-01T06:53:35.735Z,19.51
2018-07-01T06:56:04.892Z,20.11
2018-07-01T06:58:33.856Z,21.29
2018-07-01T07:01:02.561Z,21.28
2018-07-01T07:03:31.323Z,19.89
2018-07-01T07:06:00.183Z,20.53
2018-07-01T07:08:28.904Z,20.89
2018-07-01T07:10:57.543Z,21.05
2018-07-01T07:13:26.401Z,20.71
2018-07-01T07:15:55.586Z,21.43
2018-07-01T07:18:24.385Z,21.64
2018-07-01T07:20:53.220Z,20.98
2018-07-01T07:23:22.083Z,21.41
2018-07-01T07:25:50.849Z,20.70
2018-07-01T07:28:19.746Z,21.28
2018-07-01T07:30:48.401Z,21.66
2018-07-01T07:33:19.818Z,20.86
2018-07-01T07:35:48.964Z,22.08
2018-07-01T07:38:17.775Z,20.77
2018-07-01T07:40:46.556Z,20.83
2018-07-01T07:43:16.604Z,21.08
2018-07-01T07:45:51.452Z,21.14
2018-07-01T07:48:20.289Z,21.83
2018-07-01T07:50:49.104Z,22.08
2018-07-01T07:53:17.936Z,22.36
2018-07-01T07:55:46.823Z,21.70
2018-07-01T07:58:15.690Z,22.23
2018-07-01T08:00:44.500Z,22.03
2018-07-01T08:03:13.316Z,22.24
2018-07-01T08:05:42.184Z,22.68
2018-07-01T08:08:11.178Z,23.08
2018-07-01T08:10:39.936Z,23.27
2018-07-01T08:13:08.789Z,23.78
2018-07-01T08:15:37.552Z,23.25
2018-07-01T08:18:06.542Z,22.91
2018-07-01T08:20:35.395Z,22.99
2018-07-01T08:23:04.208Z,22.30
2018-07-01T08:25:33.095Z,22.37
2018-07-01T08:28:01.884Z,22.90
2018-07-01T08:30:30.818Z,22.72
2018-07-01T08:32:59.694Z,23.44
2018-07-01T08:35:28.493Z,22.66
2018-07-01T08:37:57.298Z,23.07
2018-07-01T08:40:26.240Z,22.29
2018-07-01T08:42:55.006Z,22.49
2018-07-01T08:45:23.866Z,22.94
2018-07-01T08:47:52.644Z,23.09
2018-07-01T08:50:21.458Z,23.30
2018-07-01T08:52:50.299Z,23.66
2018-07-01T08:55:19.070Z,23.50
2018-07-01T08:57:47.989Z,23.33
2018-07-01T09:00:16.822Z,23.88
2018-07-01T09:02:45.655Z,23.07
2018-07-01T09:05:14.474Z,23.71
2018-07-01T09:07:43.256Z,23.65
2018-07-01T09:10:12.249Z,23.75
2018-07-01T09:12:41.035Z,23.27
2018-07-01T09:15:09.864Z,22.98
2018-07-01T09:17:38.673Z,23.50
2018-07-01T09:20:07.294Z,23.43
2018-07-01T09:22:36.172Z,23.51
2018-07-01T09:25:05.517Z,23.86
2018-07-01T09:27:34.322Z,23.80
2018-07-01T09:30:03.376Z,23.55
2018-07-01T09:32:32.233Z,23.74
2018-07-01T09:35:01.047Z,23.73
2018-07-01T09:37:29.871Z,23.86
2018-07-01T09:39:58.883Z,23.90
2018-07-01T09:42:27.689Z,24.66
2018-07-01T09:44:56.297Z,24.78
2018-07-01T09:47:25.177Z,23.80
2018-07-01T09:49:53.960Z,23.86
2018-07-01T09:52:22.649Z,23.94
2018-07-01T09:54:51.431Z,23.61
2018-07-01T09:57:20.091Z,24.05
2018-07-01T09:59:49.279Z,23.53
2018-07-01T10:02:18.092Z,23.64
2018-07-01T10:04:46.907Z,23.94
2018-07-01T10:07:15.685Z,23.70
2018-07-01T10:09:44.475Z,24.60
2018-07-01T10:12:13.425Z,24.03
2018-07-01T10:14:42.231Z,23.65
2018-07-01T10:17:11.043Z,24.64
2018-07-01T10:19:39.875Z,23.66
2018-07-01T10:22:08.668Z,23.94
2018-07-01T10:24:37.401Z,23.51
2018-07-01T10:27:06.446Z,23.20
2018-07-01T10:29:35.251Z,23.38
2018-07-01T10:32:04.061Z,23.99
2018-07-01T10:34:32.883Z,23.62
2018-07-01T10:37:01.792Z,23.73
2018-07-01T10:39:30.438Z,23.55
2018-07-01T10:41:59.251Z,23.34
2018-07-01T10:44:27.893Z,23.27
2018-07-01T10:46:56.733Z,23.48
2018-07-01T10:49:25.614Z,23.88
2018-07-01T10:51:54.497Z,23.28
2018-07-01T10:54:23.271Z,23.72
2018-07-01T10:56:52.098Z,23.17
2018-07-01T10:59:20.739Z,23.88
2018-07-01T11:01:49.652Z,23.73
2018-07-01T11:04:18.438Z,23.62
2018-07-01T11:06:47.290Z,24.29
2018-07-01T11:09:16.081Z,24.08
2018-07-01T11:11:44.910Z,24.26
2018-07-01T11:14:13.670Z,24.16
2018-07-01T11:16:42.527Z,24.02
2018-07-01T11:19:11.327Z,24.05
2018-07-01T11:21:40.149Z,23.63
2018-07-01T11:24:08.940Z,23.90
2018-07-01T11:26:37.875Z,23.96
2018-07-01T11:29:06.635Z,24.03
2018-07-01T11:31:35.443Z,23.74
2018-07-01T11:34:04.448Z,23.96
2018-07-01T11:36:33.347Z,24.10
2018-07-01T11:39:02.238Z,23.80
2018-07-01T11:41:30.906Z,24.29
2018-07-01T11:43:59.678Z,24.36
2018-07-01T11:46:28.520Z,24.09
2018-07-01T11:48:57.371Z,23.84
2018-07-01T11:51:26.221Z,24.02
2018-07-01T11:53:55.056Z,24.30
2018-07-01T11:56:23.829Z,23.86
2018-07-01T11:58:52.707Z,24.36
2018-07-01T12:01:21.519Z,23.73
2018-07-01T12:03:50.389Z,23.54
2018-07-01T12:06:19.283Z,24.15
2018-07-01T12:08:49.092Z,24.21
2018-07-01T12:11:17.921Z,23.95
2018-07-01T12:13:46.751Z,24.35
2018-07-01T12:16:15.579Z,24.25
2018-07-01T12:18:44.431Z,24.52
2018-07-01T12:21:13.496Z,23.73
2018-07-01T12:23:42.436Z,23.85
2018-07-01T12:26:11.152Z,23.60
2018-07-01T12:28:40.072Z,23.93
2018-07-01T12:31:08.896Z,24.15
2018-07-01T12:33:37.699Z,24.57
2018-07-01T12:36:06.528Z,24.50
2018-07-01T12:38:35.367Z,24.36
2018-07-01T12:41:04.307Z,24.37
2018-07-01T12:43:33.092Z,24.72
2018-07-01T12:46:07.997Z,24.97
2018-07-01T12:48:36.814Z,24.72
2018-07-01T12:51:05.971Z,24.84
2018-07-01T12:53:34.964Z,25.26
2018-07-01T12:56:03.929Z,24.50
2018-07-01T12:58:32.556Z,24.53
2018-07-01T13:01:01.419Z,24.59
2018-07-01T13:03:30.293Z,24.12
2018-07-01T13:05:59.140Z,24.52
2018-07-01T13:08:27.991Z,24.51
2018-07-01T13:10:56.859Z,24.79
2018-07-01T13:13:25.633Z,24.27
2018-07-01T13:15:54.573Z,24.17
2018-07-01T13:18:23.356Z,24.49
2018-07-01T13:20:52.183Z,24.38
2018-07-01T13:23:21.010Z,25.00
2018-07-01T13:25:49.822Z,24.80
2018-07-01T13:28:19.385Z,24.87
2018-07-01T13:30:48.213Z,24.73
2018-07-01T13:33:16.866Z,24.66
2018-07-01T13:35:45.732Z,25.03
2018-07-01T13:38:14.552Z,25.42
2018-07-01T13:40:43.410Z,25.49
2018-07-01T13:43:12.245Z,25.20
2018-07-01T13:45:47.294Z,25.77
2018-07-01T13:48:16.130Z,25.58
2018-07-01T13:50:44.822Z,25.17
2018-07-01T13:53:13.695Z,25.56
2018-07-01T13:55:42.589Z,25.65
2018-07-01T13:58:11.506Z,24.93
2018-07-01T14:00:40.287Z,25.51
2018-07-01T14:03:09.223Z,25.39
2018-07-01T14:05:38.019Z,24.88
2018-07-01T14:08:06.924Z,24.80
2018-07-01T14:10:35.551Z,24.83
2018-07-01T14:13:04.604Z,25.29
2018-07-01T14:15:33.443Z,25.36
2018-07-01T14:18:02.317Z,24.78
2018-07-01T14:20:31.100Z,25.08
2018-07-01T14:22:59.932Z,25.30
2018-07-01T14:25:28.727Z,25.04
2018-07-01T14:27:57.619Z,25.00
2018-07-01T14:30:26.406Z,25.71
2018-07-01T14:32:55.260Z,25.73
2018-07-01T14:35:24.320Z,25.07
2018-07-01T14:37:52.935Z,25.27
2018-07-01T14:40:21.812Z,25.27
2018-07-01T14:42:50.579Z,25.37
2018-07-01T14:45:25.375Z,25.39
2018-07-01T14:47:54.160Z,25.43
2018-07-01T14:50:22.876Z,25.57
2018-07-01T14:52:51.640Z,24.99
2018-07-01T14:55:20.557Z,25.20
2018-07-01T14:57:49.358Z,25.06
2018-07-01T15:00:18.184Z,24.76
2018-07-01T15:02:47.056Z,25.28
2018-07-01T15:05:15.883Z,25.01
2018-07-01T15:07:44.654Z,25.21
2018-07-01T15:10:13.463Z,25.50
2018-07-01T15:12:43.290Z,25.26
2018-07-01T15:15:12.227Z,25.01
2018-07-01T15:17:41.019Z,25.18
2018-07-01T15:20:09.697Z,25.41
2018-07-01T15:22:38.475Z,25.56
2018-07-01T15:25:07.340Z,25.44
2018-07-01T15:27:36.228Z,25.49
2018-07-01T15:30:07.574Z,25.36
2018-07-01T15:32:37.015Z,25.97
2018-07-01T15:35:05.938Z,25.55
2018-07-01T15:37:35.359Z,25.39
2018-07-01T15:40:05.309Z,25.12
2018-07-01T15:42:34.187Z,25.55
2018-07-01T15:45:03.136Z,25.45
2018-07-01T15:47:32.027Z,25.50
2018-07-01T15:50:00.823Z,25.41
2018-07-01T15:52:29.739Z,25.42
2018-07-01T15:54:58.564Z,24.94
2018-07-01T15:57:27.359Z,24.97
2018-07-01T15:59:56.155Z,24.97
2018-07-01T16:02:25.051Z,25.38
2018-07-01T16:04:53.861Z,25.17
2018-07-01T16:07:22.735Z,24.86
2018-07-01T16:09:51.506Z,25.10
2018-07-01T16:12:20.379Z,25.14
2018-07-01T16:14:49.191Z,24.84
2018-07-01T16:17:18.087Z,24.81
2018-07-01T16:19:47.247Z,24.44
2018-07-01T16:22:16.066Z,24.53
2018-07-01T16:24:51.433Z,24.75
2018-07-01T16:27:26.131Z,24.82
2018-07-01T16:29:54.904Z,25.14
2018-07-01T16:32:23.819Z,24.97
2018-07-01T16:34:52.572Z,24.65
2018-07-01T16:37:21.551Z,24.56
2018-07-01T16:39:50.325Z,24.85
2018-07-01T16:42:19.005Z,24.50
2018-07-01T16:44:47.861Z,24.35
2018-07-01T16:47:16.664Z,24.60
2018-07-01T16:49:45.507Z,24.81
2018-07-01T16:52:14.364Z,24.62
2018-07-01T16:54:43.243Z,24.40
2018-07-01T16:57:12.056Z,24.25
2018-07-01T16:59:40.749Z,24.44
2018-07-01T17:02:10.142Z,24.48
2018-07-01T17:04:39.485Z,24.19
2018-07-01T17:07:08.328Z,24.21
2018-07-01T17:09:37.126Z,24.22
2018-07-01T17:12:05.924Z,24.25
2018-07-01T17:14:34.851Z,23.97
2018-07-01T17:17:03.738Z,23.94
2018-07-01T17:19:32.572Z,24.02
2018-07-01T17:22:01.461Z,23.99
2018-07-01T17:24:30.299Z,23.96
2018-07-01T17:26:59.115Z,24.01
2018-07-01T17:29:27.915Z,23.98
2018-07-01T17:32:02.276Z,23.89
2018-07-01T17:34:31.150Z,23.78
2018-07-01T17:37:00.095Z,23.71
2018-07-01T17:39:28.866Z,23.66
2018-07-01T17:41:57.952Z,23.83
2018-07-01T17:44:26.704Z,23.67
2018-07-01T17:46:55.556Z,23.63
2018-07-01T17:49:24.411Z,23.48
2018-07-01T17:51:53.549Z,23.46
2018-07-01T17:54:22.380Z,23.39
2018-07-01T17:56:51.475Z,23.68
2018-07-01T17:59:20.241Z,23.45
2018-07-01T18:01:49.193Z,23.30
2018-07-01T18:04:17.809Z,23.27
2018-07-01T18:06:46.632Z,23.29
2018-07-01T18:09:15.447Z,23.32
2018-07-01T18:11:44.105Z,23.25
2018-07-01T18:14:12.927Z,23.19
2018-07-01T18:16:41.590Z,23.07
2018-07-01T18:19:10.374Z,23.04
2018-07-01T18:21:40.297Z,23.05
2018-07-01T18:24:35.139Z,22.94
2018-07-01T18:26:37.322Z,22.87
2018-07-01T18:29:13.251Z,22.96
2018-07-01T18:31:35.346Z,22.74
2018-07-01T18:34:04.331Z,22.70
2018-07-01T18:36:33.308Z,22.69
2018-07-01T18:39:02.253Z,22.57
2018-07-01T18:41:31.024Z,22.45
2018-07-01T18:43:59.908Z,22.27
2018-07-01T18:46:28.776Z,21.92
2018-07-01T18:48:57.620Z,21.64
2018-07-01T18:51:26.503Z,21.50
2018-07-01T18:53:56.189Z,21.47
2018-07-01T18:56:24.980Z,21.44
2018-07-01T18:58:53.892Z,21.41
2018-07-01T19:01:23.004Z,21.30
2018-07-01T19:03:51.846Z,21.22
2018-07-01T19:06:20.603Z,21.16
2018-07-01T19:08:49.403Z,21.13
2018-07-01T19:11:18.192Z,21.05
2018-07-01T19:13:47.055Z,21.01
2018-07-01T19:16:15.880Z,20.94
2018-07-01T19:18:44.712Z,20.88
2018-07-01T19:21:13.544Z,20.79
2018-07-01T19:23:42.409Z,20.72
2018-07-01T19:26:11.188Z,20.64
2018-07-01T19:28:40.069Z,20.55
2018-07-01T19:31:08.876Z,20.52
2018-07-01T19:33:37.915Z,20.42
2018-07-01T19:36:06.910Z,20.36
2018-07-01T19:38:35.678Z,20.33
2018-07-01T19:41:04.608Z,20.24
2018-07-01T19:43:33.570Z,20.19
2018-07-01T19:46:02.295Z,20.07
2018-07-01T19:48:31.292Z,20.05
2018-07-01T19:51:00.124Z,19.93
2018-07-01T19:53:28.961Z,19.85
2018-07-01T19:55:57.803Z,19.79
2018-07-01T19:58:26.572Z,19.76
2018-07-01T20:00:55.383Z,19.65
2018-07-01T20:03:24.261Z,19.59
2018-07-01T20:05:53.099Z,19.56
2018-07-01T20:08:22.089Z,19.46
2018-07-01T20:10:51.120Z,19.36
2018-07-01T20:13:19.975Z,19.36
2018-07-01T20:15:48.784Z,19.32
2018-07-01T20:18:17.596Z,19.22
2018-07-01T20:20:46.437Z,19.17
2018-07-01T20:23:18.311Z,19.08
2018-07-01T20:25:47.107Z,19.05
2018-07-01T20:28:15.891Z,19.00
2018-07-01T20:30:44.754Z,18.98
2018-07-01T20:33:13.500Z,18.93
2018-07-01T20:35:42.244Z,18.84
2018-07-01T20:38:10.877Z,18.88
2018-07-01T20:40:39.628Z,18.79
2018-07-01T20:43:08.563Z,18.78
2018-07-01T20:45:43.393Z,18.71
2018-07-01T20:48:12.190Z,18.67
2018-07-01T20:50:40.960Z,18.59
2018-07-01T20:53:09.847Z,18.42
2018-07-01T20:55:38.664Z,18.42
2018-07-01T20:58:07.513Z,18.46
2018-07-01T21:00:36.257Z,18.23
2018-07-01T21:03:04.975Z,18.26
2018-07-01T21:05:34.063Z,18.19
2018-07-01T21:08:02.870Z,18.14
2018-07-01T21:10:31.615Z,18.11
2018-07-01T21:13:00.427Z,18.00
2018-07-01T21:15:29.019Z,17.96
2018-07-01T21:17:57.897Z,17.92
2018-07-01T21:20:26.698Z,17.92
2018-07-01T21:22:55.362Z,17.95
2018-07-01T21:25:24.102Z,17.79
2018-07-01T21:27:52.865Z,17.77
2018-07-01T21:30:21.754Z,17.69
2018-07-01T21:32:50.502Z,17.59
2018-07-01T21:35:19.327Z,17.63
2018-07-01T21:37:48.095Z,17.65
2018-07-01T21:40:16.751Z,17.48
2018-07-01T21:42:45.927Z,17.52
2018-07-01T21:45:20.812Z,17.42
2018-07-01T21:47:49.477Z,17.38
2018-07-01T21:50:18.397Z,17.37
2018-07-01T21:52:47.233Z,17.26
2018-07-01T21:55:16.095Z,17.24
2018-07-01T21:57:44.864Z,17.09
2018-07-01T22:00:13.783Z,17.04
2018-07-01T22:02:42.421Z,17.05
2018-07-01T22:05:11.323Z,17.06
2018-07-01T22:07:40.096Z,16.98
2018-07-01T22:10:08.925Z,17.04
2018-07-01T22:12:49.326Z,16.91
2018-07-01T22:15:29.402Z,16.90
2018-07-01T22:17:58.191Z,16.89
2018-07-01T22:20:27.016Z,16.93
2018-07-01T22:22:55.791Z,16.84
2018-07-01T22:25:24.707Z,16.85
2018-07-01T22:27:53.314Z,16.82
2018-07-01T22:30:22.154Z,16.90
2018-07-01T22:32:51.210Z,16.91
2018-07-01T22:35:20.123Z,16.80
2018-07-01T22:37:49.056Z,16.82
2018-07-01T22:40:17.645Z,16.84
2018-07-01T22:42:46.458Z,16.73
2018-07-01T22:45:21.322Z,16.78
2018-07-01T22:47:50.198Z,16.76
2018-07-01T22:50:18.968Z,16.70
2018-07-01T22:52:47.792Z,16.68
2018-07-01T22:55:16.572Z,16.62
2018-07-01T22:57:45.379Z,16.58
2018-07-01T23:00:14.390Z,16.55
2018-07-01T23:03:03.410Z,16.38
2018-07-01T23:05:32.205Z,16.40
2018-07-01T23:08:01.034Z,16.43
2018-07-01T23:10:30.594Z,16.41
2018-07-01T23:12:59.896Z,16.41
2018-07-01T23:15:28.831Z,16.32
2018-07-01T23:17:57.644Z,16.27
2018-07-01T23:20:26.426Z,16.30
2018-07-01T23:22:55.358Z,16.21
2018-07-01T23:25:24.224Z,16.17
2018-07-01T23:27:53.037Z,16.24
2018-07-01T23:30:21.967Z,16.25
2018-07-01T23:32:50.988Z,16.19
2018-07-01T23:35:20.004Z,16.18
2018-07-01T23:37:48.791Z,16.07
2018-07-01T23:40:17.672Z,16.02
2018-07-01T23:42:46.287Z,16.01
2018-07-01T23:45:21.248Z,15.98
2018-07-01T23:47:50.095Z,15.96
2018-07-01T23:50:18.920Z,16.00
2018-07-01T23:52:47.711Z,15.95
2018-07-01T23:55:16.555Z,15.68
2018-07-01T23:57:45.169Z,15.89
